ADDS METAR Data INFO
IDs: Format: Raw Decoded Include TAF

Data at: 0059 UTC 24 Aug 2017

KBPT 240053Z 07008KT 10SM CLR 27/24 A2987 RMK AO2 SLP116 T02670239
KBPT 232353Z 10007KT 10SM FEW110 28/23 A2987 RMK AO2 SLP115 60001 T02830233 10317 20267 56007
KBPT 232253Z 08006KT 10SM FEW100 28/24 A2988 RMK AO2 RAE2154 SLP117 P0000 T02780239
KBPT 232153Z 01003KT 10SM -RA BKN043 BKN050 BKN065 28/24 A2987 RMK AO2 LTG DSNT E AND SE SLP115 P0001 T02830239
KBPT 232053Z 36007KT 10SM -RA FEW090 FEW120 27/23 A2989 RMK AO2 LTG DSNT NE-SE RAB52 SLP122 P0000 60000 T02720228 58018
KBPT 232041Z 35007KT 10SM FEW050 27/23 A2989 RMK AO2 LTG DSNT NE-SE T02720228
KBPT 231953Z 06003KT 10SM VCTS FEW040 BKN065 31/23 A2991 RMK AO2 LTG DSNT ALQDS TSB1857E15 SLP128 T03060228
KBPT 231921Z 31003KT 10SM VCTS BKN095 31/24 A2992 RMK AO2 LTG DSNT N AND NE TSB1857E15 T03060239
KBPT 231857Z 05003KT 10SM TS FEW065 FEW090 29/23 A2993 RMK AO2 LTG DSNT ALQDS TSB57 T02940233
KBPT 231853Z 06004KT 10SM FEW065 29/23 A2993 RMK AO2 LTG DSNT SW-N SLP135 T02940228
KBPT 231845Z 04005KT 10SM FEW065 29/22 A2994 RMK AO2 LTG DSNT N AND NW T02940222
KBPT 231753Z 32004KT 10SM VCTS CLR 31/24 A2995 RMK AO2 LTG DSNT ALQDS SLP141 60001 T03060244 10311 20256 58014
KBPT 231653Z 28003KT 10SM CLR 26/23 A2998 RMK AO2 LTG DSNT N-SE SLP150 T02610228
KBPT 231630Z 31007KT 10SM FEW022 SCT029 BKN090 29/24 A2999 RMK AO2 LTG DSNT E T02890239
KBPT 231607Z 31009KT 10SM BKN024 BKN031 27/23 A2999 RMK AO2 T02670228
KBPT 231553Z 30010KT 10SM SCT024 30/24 A2998 RMK AO2 SLP151 T03000239
KBPT 231453Z 11003KT 10SM FEW031 27/24 A2999 RMK AO2 SLP154 60001 T02720239 53004
KBPT 231353Z 00000KT 10SM BKN110 26/24 A2998 RMK AO2 RAE16 SLP152 P0001 T02610239
KBPT 231305Z 13005KT 6SM -RA BR FEW006 SCT022 BKN029 26/24 A2998 RMK AO2 VIS SE 2 P0000 T02560239
KBPT 231253Z 07006KT 6SM VCTS -RA BR FEW006 BKN025 OVC050 26/24 A2998 RMK AO2 RAB44 TSB00E15 SLP153 VIS SE 2 P0000 T02560239
KBPT 231248Z 05006KT 6SM VCTS -RA BR FEW006 BKN025 OVC050 27/26 A2998 RMK AO2 RAB44 TSB00E15 VIS SE 2 P0000
KBPT 231215Z 02004KT 10SM BKN029 27/26 A2998 RMK AO2 TSB00E15 T02670256 $
KBPT 231206Z 01003KT 10SM TS SCT029 26/26 A2998 RMK AO2 LTG DSNT S TSB00 T02610256 $
KBPT 231153Z 05004KT 10SM VCTS SCT025 26/25 A2999 RMK AO2 LTG DSNT SE AND S SLP153 70023 T02610250 53007 $
KBPT 231053Z 00000KT 10SM CLR A2997 RMK AO2 SLP150 $
KBPT 230953Z AUTO 33004KT 10SM CLR 25/24 A2996 RMK AO2 SLP144 T02500239
KBPT 230853Z AUTO 00000KT 10SM CLR 24/24 A2996 RMK AO2 SLP146 T02440239 56011
KBPT 230753Z AUTO 00000KT 10SM CLR 25/24 A2997 RMK AO2 SLP148 T02500239
KBPT 230653Z AUTO 00000KT 10SM CLR 25/24 A2999 RMK AO2 SLP153 T02500239
KBPT 230553Z AUTO 00000KT 10SM CLR 25/24 A3000 RMK AO2 SLP157 T02500239 10300 20250 403280239 53005
KBPT 230453Z AUTO 00000KT 10SM CLR 26/24 A2999 RMK AO2 SLP153 T02560244
KBPT 230353Z AUTO 00000KT 10SM CLR 26/24 A2998 RMK AO2 SLP150 T02560244
KBPT 230253Z AUTO 00000KT 10SM CLR 27/24 A2998 RMK AO2 SLP152 T02670239 55000
KBPT 230153Z 16004KT 10SM FEW030 27/24 A2997 RMK AO2 SLP149 T02670239
KBPT 230053Z 15005KT 10SM CLR 28/23 A2998 RMK AO2 SLP150 T02780233
KBPT 222353Z 13005KT 10SM CLR 29/23 A2998 RMK AO2 SLP153 60023 T02940228 10317 20244 56009
KBPT 222253Z 11007KT 10SM CLR 32/22 A2999 RMK AO2 SLP155 T03170222
KBPT 222153Z 15006KT 10SM CLR 32/22 A2999 RMK AO2 SLP156 T03170222
KBPT 222053Z 13007KT 10SM CLR 30/23 A3001 RMK AO2 SLP162 60023 T03000228 58018
KBPT 221953Z 15009KT 10SM SCT110 30/23 A3004 RMK AO2 RAE17 SLP170 P0000 T03000233
KBPT 221853Z 13005KT 8SM -RA FEW055 SCT070 OVC095 25/23 A3006 RMK AO2 WSHFT 1800 LTG DSNT E TSB06E21 SLP177 P0023 T02500228
KBPT 221830Z 07008KT 4SM R12/5500VP6000FT +RA BR FEW038 BKN055 OVC090 25/23 A3008 RMK AO2 WSHFT 1800 LTG DSNT E TSB06E21 P0015 T02500228
KBPT 221823Z 10010KT 2 1/2SM R12/5500VP6000FT +RA BR SCT041 BKN050 OVC085 25/23 A3008 RMK AO2 WSHFT 1800 LTG DSNT E TSB06E21 P0009 T02500228
KBPT 221820Z 09010KT 3SM R12/5500VP6000FT TSRA BR SCT039 BKN050 OVC110 25/23 A3008 RMK AO2 WSHFT 1800 LTG DSNT E TSB06 P0007 T02500228
KBPT 221812Z 09013KT 4SM TSRA FEW039 BKN050 OVC110 26/23 A3007 RMK AO2 LTG DSNT E TSB06 P0004 T02610233
KBPT 221753Z 00000KT 9SM -RA SCT037 SCT080 BKN110 29/24 A3006 RMK TORNADO B03 TORNADO E08 AO2 LTG DSNT E RAB44 SLP179 P0000 60000 T02940239 58002
KBPT 221739Z 05003KT 10SM FEW080 BKN110 31/23 A3007 RMK TORNADO B03 TORNADO E08 AO2 LTG DSNT E T03110233
KBPT 221709Z VRB04KT 10SM FEW029 SCT046 SCT110 32/25 A3007 RMK TORNADO B03 TORNADO E08 AO2 LTG DSNT E AND SE T03220250
KBPT 221704Z COR VRB05KT 10SM +FC FEW044 SCT100 31/24 A3007 RMK TORNADO B03 TORNADO E AO2 LTG DSNT E AND SE T03110244
KBPT 221653Z 07004KT 10SM BKN030 31/24 A3007 RMK AO2 LTG DSNT E AND SE RAB43E53 SLP183 P0000 T03110239
KBPT 221553Z COR 00000KT 10SM BKN030 30/24 A3008 RMK AO2 SLP185 T03000239
KBPT 221453Z 03005KT 10SM FEW030 30/24 A3007 RMK AO2 SLP182 T03000244 53012
KBPT 221353Z 03005KT 10SM CLR 28/24 A3006 RMK AO2 SLP178 T02830244